createdAt,value
2022-07-29T00:02:14.370Z,6.40
2022-07-29T00:04:45.031Z,6.70
2022-07-29T00:07:15.509Z,6.70
2022-07-29T00:09:52.102Z,6.60
2022-07-29T00:12:25.658Z,7.10
2022-07-29T00:14:58.759Z,6.10
2022-07-29T00:17:29.420Z,7.40
2022-07-29T00:20:00.165Z,6.80
2022-07-29T00:22:30.779Z,7.20
2022-07-29T00:25:01.265Z,6.60
2022-07-29T00:27:31.784Z,6.50
2022-07-29T00:30:02.437Z,6.60
2022-07-29T00:32:33.251Z,6.30
2022-07-29T00:35:21.388Z,6.70
2022-07-29T00:37:52.095Z,6.30
2022-07-29T00:40:23.589Z,6.80
2022-07-29T00:42:55.129Z,6.80
2022-07-29T00:45:25.954Z,6.40
2022-07-29T00:47:56.533Z,6.60
2022-07-29T00:50:27.695Z,6.60
2022-07-29T00:55:29.091Z,6.60
2022-07-29T00:58:00.565Z,6.90
2022-07-29T01:00:32.448Z,7.10
2022-07-29T01:03:03.067Z,6.90
2022-07-29T01:05:48.528Z,7.20
2022-07-29T01:08:23.937Z,6.90
2022-07-29T01:10:55.287Z,7.50
2022-07-29T01:13:27.580Z,7.90
2022-07-29T01:16:06.202Z,6.70
2022-07-29T01:18:41.432Z,7.10
2022-07-29T01:21:42.368Z,7.40
2022-07-29T01:24:32.374Z,7.50
2022-07-29T01:27:16.320Z,7.20
2022-07-29T01:29:56.174Z,7.80
2022-07-29T01:32:31.611Z,8.10
2022-07-29T01:35:08.738Z,7.20
2022-07-29T01:37:45.148Z,7.10
2022-07-29T01:40:24.124Z,7.00
2022-07-29T01:42:57.722Z,7.40
2022-07-29T01:45:35.423Z,7.00
2022-07-29T01:48:11.167Z,7.90
2022-07-29T01:50:49.480Z,8.10
2022-07-29T01:53:27.899Z,7.10
2022-07-29T01:56:11.083Z,7.60
2022-07-29T01:58:45.853Z,7.50
2022-07-29T02:01:18.328Z,8.40
2022-07-29T02:03:50.063Z,7.20
2022-07-29T02:06:24.694Z,8.10
2022-07-29T02:08:57.926Z,7.20
2022-07-29T02:11:29.274Z,7.50
2022-07-29T02:14:01.929Z,7.90
2022-07-29T02:16:38.402Z,7.70
2022-07-29T02:19:11.942Z,8.00
2022-07-29T02:21:44.246Z,8.10
2022-07-29T02:24:16.967Z,7.60
2022-07-29T02:26:49.800Z,7.40
2022-07-29T02:29:23.845Z,8.10
2022-07-29T02:31:56.194Z,8.20
2022-07-29T02:34:27.611Z,7.40
2022-07-29T02:37:00.181Z,7.50
2022-07-29T02:39:33.287Z,7.60
2022-07-29T02:42:07.458Z,7.40
2022-07-29T02:44:38.906Z,7.70
2022-07-29T02:47:14.875Z,7.20
2022-07-29T02:49:55.003Z,7.20
2022-07-29T02:52:33.795Z,7.50
2022-07-29T02:55:11.955Z,6.70
2022-07-29T02:57:53.971Z,7.80
2022-07-29T03:00:29.686Z,7.40
2022-07-29T03:03:05.261Z,7.40
2022-07-29T03:05:36.514Z,7.50
2022-07-29T03:08:11.881Z,7.20
2022-07-29T03:10:45.467Z,7.00
2022-07-29T03:13:16.890Z,8.10
2022-07-29T03:15:48.651Z,7.40
2022-07-29T03:18:19.887Z,7.00
2022-07-29T03:23:25.107Z,7.00
2022-07-29T03:25:56.444Z,7.50
2022-07-29T03:28:29.246Z,7.30
2022-07-29T03:30:59.872Z,7.80
2022-07-29T03:33:31.359Z,6.80
2022-07-29T03:36:03.334Z,7.30
2022-07-29T03:38:38.166Z,6.90
2022-07-29T03:41:12.782Z,6.90
2022-07-29T03:43:49.241Z,6.80
2022-07-29T03:46:24.019Z,6.90
2022-07-29T03:48:59.127Z,7.10
2022-07-29T03:51:33.454Z,7.20
2022-07-29T03:54:09.846Z,9.00
2022-07-29T03:56:44.610Z,7.70
2022-07-29T03:59:17.596Z,7.70
2022-07-29T04:01:49.939Z,7.30
2022-07-29T04:04:20.736Z,7.10
2022-07-29T04:06:51.389Z,7.60
2022-07-29T04:09:22.098Z,7.70
2022-07-29T04:12:01.930Z,7.70
2022-07-29T04:14:35.413Z,8.60
2022-07-29T04:17:07.359Z,7.60
2022-07-29T04:19:37.954Z,7.00
2022-07-29T04:22:08.457Z,7.90
2022-07-29T04:24:41.823Z,8.00
2022-07-29T04:27:14.919Z,7.60
2022-07-29T04:29:56.389Z,7.70
2022-07-29T04:32:28.303Z,9.20
2022-07-29T04:34:59.916Z,8.20
2022-07-29T04:37:30.359Z,8.30
2022-07-29T04:40:00.963Z,8.00
2022-07-29T04:42:31.403Z,8.70
2022-07-29T04:45:02.569Z,7.80
2022-07-29T04:47:33.315Z,7.70
2022-07-29T04:50:04.353Z,7.70
2022-07-29T04:52:35.697Z,8.50
2022-07-29T04:55:07.975Z,7.80
2022-07-29T04:57:38.512Z,9.10
2022-07-29T05:00:12.223Z,8.60
2022-07-29T05:02:43.038Z,7.90
2022-07-29T05:05:13.643Z,8.40
2022-07-29T05:07:45.853Z,8.50
2022-07-29T05:10:16.532Z,7.90
2022-07-29T05:12:47.401Z,8.20
2022-07-29T05:15:18.639Z,8.20
2022-07-29T05:20:19.415Z,8.00
2022-07-29T05:22:52.675Z,7.80
2022-07-29T05:25:23.583Z,7.70
2022-07-29T05:28:17.594Z,8.30
2022-07-29T05:30:50.483Z,7.40
2022-07-29T05:33:34.793Z,8.60
2022-07-29T05:36:09.661Z,7.50
2022-07-29T05:42:09.689Z,6.80
2022-07-29T05:44:41.898Z,7.10
2022-07-29T05:47:12.916Z,7.70
2022-07-29T05:49:43.654Z,7.20
2022-07-29T05:52:14.752Z,7.40
2022-07-29T05:54:45.866Z,6.60
2022-07-29T05:57:21.212Z,7.50
2022-07-29T05:59:52.712Z,7.10
2022-07-29T06:02:23.386Z,7.10
2022-07-29T06:04:53.973Z,7.30
2022-07-29T06:07:24.849Z,7.60
2022-07-29T06:09:55.596Z,7.80
2022-07-29T06:12:26.220Z,7.70
2022-07-29T06:14:57.635Z,7.40
2022-07-29T06:17:28.453Z,7.70
2022-07-29T06:19:59.219Z,7.60
2022-07-29T06:22:29.872Z,7.20
2022-07-29T06:25:00.456Z,7.90
2022-07-29T06:27:31.224Z,7.90
2022-07-29T06:30:02.676Z,7.80
2022-07-29T06:32:33.267Z,8.70
2022-07-29T06:35:36.982Z,8.50
2022-07-29T06:37:55.396Z,7.70
2022-07-29T06:40:48.254Z,8.00
2022-07-29T06:43:19.004Z,7.70
2022-07-29T06:45:49.738Z,8.50
2022-07-29T06:48:20.509Z,8.50
2022-07-29T06:50:51.122Z,8.50
2022-07-29T06:53:23.211Z,9.00
2022-07-29T06:55:54.031Z,8.60
2022-07-29T06:58:24.735Z,8.30
2022-07-29T07:01:04.387Z,9.10
2022-07-29T07:03:35.806Z,10.60
2022-07-29T07:06:06.534Z,8.90
2022-07-29T07:08:37.724Z,8.80
2022-07-29T07:11:09.415Z,8.60
2022-07-29T07:13:40.162Z,9.70
2022-07-29T07:16:10.843Z,9.70
2022-07-29T07:18:41.693Z,9.30
2022-07-29T07:21:12.668Z,11.00
2022-07-29T07:23:50.117Z,9.40
2022-07-29T07:26:20.782Z,9.60
2022-07-29T07:28:51.309Z,8.70
2022-07-29T07:31:22.138Z,9.80
2022-07-29T07:33:54.295Z,9.20
2022-07-29T07:36:25.558Z,10.20
2022-07-29T07:38:56.277Z,10.40
2022-07-29T07:41:26.806Z,10.00
2022-07-29T07:44:03.435Z,10.10
2022-07-29T07:46:33.998Z,10.30
2022-07-29T07:49:04.827Z,10.30
2022-07-29T07:54:04.996Z,9.90
2022-07-29T07:56:35.580Z,10.90
2022-07-29T07:59:06.172Z,10.30
2022-07-29T08:01:55.254Z,9.50
2022-07-29T08:04:28.900Z,10.50
2022-07-29T08:07:00.526Z,10.30
2022-07-29T08:09:31.930Z,10.30
2022-07-29T08:12:04.740Z,11.10
2022-07-29T08:14:35.709Z,9.50
2022-07-29T08:19:35.841Z,10.70
2022-07-29T08:22:06.821Z,11.20
2022-07-29T08:27:42.588Z,11.10
2022-07-29T08:30:13.056Z,11.60
2022-07-29T08:32:53.738Z,10.60
2022-07-29T08:35:26.025Z,10.90
2022-07-29T08:37:57.907Z,10.10
2022-07-29T08:40:32.553Z,11.20
2022-07-29T08:43:08.410Z,11.80
2022-07-29T08:45:48.573Z,12.20
2022-07-29T08:48:22.277Z,11.00
2022-07-29T08:50:58.890Z,11.00
2022-07-29T08:53:31.913Z,11.40
2022-07-29T08:56:03.584Z,12.20
2022-07-29T08:58:38.304Z,11.50
2022-07-29T09:01:13.899Z,12.70
2022-07-29T09:03:48.441Z,11.40
2022-07-29T09:06:22.114Z,11.50
2022-07-29T09:08:53.281Z,12.20
2022-07-29T09:11:23.967Z,11.90
2022-07-29T09:13:55.124Z,12.50
2022-07-29T09:16:50.894Z,13.20
2022-07-29T09:19:26.619Z,13.40
2022-07-29T09:22:03.752Z,12.80
2022-07-29T09:24:48.332Z,12.80
2022-07-29T09:27:31.344Z,15.40
2022-07-29T09:30:06.968Z,13.70
2022-07-29T09:32:59.543Z,14.10
2022-07-29T09:35:32.080Z,13.70
2022-07-29T09:38:13.785Z,14.40
2022-07-29T09:40:57.682Z,15.40
2022-07-29T09:43:33.032Z,15.00
2022-07-29T09:46:15.947Z,14.80
2022-07-29T09:48:46.676Z,14.80
2022-07-29T09:51:37.636Z,14.10
2022-07-29T09:54:26.677Z,15.40
2022-07-29T09:56:58.299Z,14.70
2022-07-29T09:59:29.307Z,15.20
2022-07-29T10:02:00.317Z,15.60
2022-07-29T10:04:42.689Z,15.00
2022-07-29T10:07:13.295Z,14.30
2022-07-29T10:09:57.557Z,14.30
2022-07-29T10:12:35.916Z,13.80
2022-07-29T10:15:08.089Z,14.10
2022-07-29T10:17:41.880Z,14.50
2022-07-29T10:20:16.467Z,14.70
2022-07-29T10:22:53.566Z,14.90
2022-07-29T10:25:25.478Z,15.00
2022-07-29T10:27:56.939Z,13.80
2022-07-29T10:30:29.094Z,14.40
2022-07-29T10:33:17.555Z,16.30
2022-07-29T10:36:10.649Z,14.20
2022-07-29T10:38:54.021Z,13.90
2022-07-29T10:41:49.755Z,14.20
2022-07-29T10:44:23.865Z,15.60
2022-07-29T10:46:55.411Z,14.40
2022-07-29T10:49:27.823Z,14.40
2022-07-29T10:52:06.667Z,14.50
2022-07-29T10:54:53.617Z,14.50
2022-07-29T10:57:57.728Z,13.70
2022-07-29T11:00:34.979Z,13.70
2022-07-29T11:03:10.452Z,14.30
2022-07-29T11:06:08.793Z,14.40
2022-07-29T11:08:39.566Z,15.20
2022-07-29T11:11:44.059Z,14.90
2022-07-29T11:14:56.739Z,13.70
2022-07-29T11:17:37.572Z,16.20
2022-07-29T11:20:41.357Z,15.90
2022-07-29T11:23:33.650Z,14.50
2022-07-29T11:26:25.566Z,15.30
2022-07-29T11:29:03.326Z,15.10
2022-07-29T11:31:39.834Z,16.00
2022-07-29T11:34:28.140Z,15.40
2022-07-29T11:37:28.117Z,16.00
2022-07-29T11:40:18.302Z,14.90
2022-07-29T11:42:52.796Z,15.40
2022-07-29T11:45:46.721Z,14.80
2022-07-29T11:48:28.432Z,15.50
2022-07-29T11:51:01.673Z,15.40
2022-07-29T11:53:35.249Z,16.30
2022-07-29T11:56:10.348Z,16.30
2022-07-29T11:58:41.368Z,16.20
2022-07-29T12:01:19.438Z,15.80
2022-07-29T12:03:53.700Z,14.90
2022-07-29T12:06:24.262Z,14.10
2022-07-29T12:08:54.925Z,14.60
2022-07-29T12:11:25.544Z,16.20
2022-07-29T12:13:56.661Z,14.50
2022-07-29T12:16:38.408Z,15.00
2022-07-29T12:19:12.024Z,15.20
2022-07-29T12:21:54.036Z,14.60
2022-07-29T12:24:44.916Z,14.60
2022-07-29T12:27:29.534Z,13.60
2022-07-29T12:30:03.573Z,15.70
2022-07-29T12:32:39.625Z,14.70
2022-07-29T12:35:12.057Z,14.30
2022-07-29T12:37:45.724Z,15.40
2022-07-29T12:40:20.529Z,16.80
2022-07-29T12:43:15.061Z,16.00
2022-07-29T12:45:48.386Z,15.70
2022-07-29T12:48:34.848Z,15.80
2022-07-29T12:51:10.605Z,15.20
2022-07-29T12:53:41.649Z,15.80
2022-07-29T12:56:41.668Z,15.70
2022-07-29T12:59:19.170Z,15.80
2022-07-29T13:01:51.427Z,14.40
2022-07-29T13:04:32.190Z,13.90
2022-07-29T13:07:06.951Z,13.70
2022-07-29T13:09:46.408Z,14.70
2022-07-29T13:12:18.431Z,15.00
2022-07-29T13:14:50.903Z,15.10
2022-07-29T13:17:24.229Z,14.10
2022-07-29T13:20:06.629Z,13.50
2022-07-29T13:22:39.521Z,12.60
2022-07-29T13:25:11.627Z,13.50
2022-07-29T13:27:42.340Z,13.10
2022-07-29T13:30:14.846Z,12.90
2022-07-29T13:32:45.684Z,11.90
2022-07-29T13:35:16.571Z,11.60
2022-07-29T13:37:47.166Z,11.70
2022-07-29T13:40:19.966Z,12.30
2022-07-29T13:42:50.505Z,12.10
2022-07-29T13:45:21.220Z,12.70
2022-07-29T13:47:51.819Z,12.20
2022-07-29T13:50:22.327Z,12.00
2022-07-29T13:52:53.643Z,12.20
2022-07-29T13:55:24.692Z,12.30
2022-07-29T13:57:55.157Z,11.00
2022-07-29T14:00:27.190Z,11.80
2022-07-29T14:02:57.911Z,11.70
2022-07-29T14:05:28.693Z,11.80
2022-07-29T14:07:59.213Z,11.90
2022-07-29T14:10:30.002Z,11.60
2022-07-29T14:13:00.684Z,11.80
2022-07-29T14:18:00.567Z,12.00
2022-07-29T14:20:31.764Z,12.40
2022-07-29T14:23:03.465Z,12.00
2022-07-29T14:25:35.831Z,11.70
2022-07-29T14:28:10.003Z,12.20
2022-07-29T14:30:42.193Z,12.70
2022-07-29T14:33:12.837Z,12.30
2022-07-29T14:38:12.561Z,12.20
2022-07-29T14:40:43.806Z,11.60
2022-07-29T14:43:14.795Z,13.30
2022-07-29T14:45:45.281Z,11.90
2022-07-29T14:50:44.891Z,13.00
2022-07-29T14:53:15.468Z,11.10
2022-07-29T14:58:16.664Z,11.20
2022-07-29T15:00:47.473Z,11.40
2022-07-29T15:03:24.027Z,11.30
2022-07-29T15:05:55.150Z,12.00
2022-07-29T15:08:26.360Z,12.40
2022-07-29T15:10:58.619Z,11.70
2022-07-29T15:13:30.540Z,12.30
2022-07-29T15:16:01.382Z,12.40
2022-07-29T15:18:32.011Z,13.40
2022-07-29T15:21:03.280Z,11.90
2022-07-29T15:23:34.071Z,12.10
2022-07-29T15:26:04.614Z,11.90
2022-07-29T15:28:35.332Z,11.90
2022-07-29T15:31:05.927Z,11.10
2022-07-29T15:33:36.505Z,11.00
2022-07-29T15:38:41.623Z,10.90
2022-07-29T15:41:15.759Z,10.40
2022-07-29T15:43:48.564Z,10.80
2022-07-29T15:46:38.096Z,10.60
2022-07-29T15:49:09.550Z,9.90
2022-07-29T15:51:40.219Z,11.00
2022-07-29T15:56:40.114Z,9.80
2022-07-29T16:01:42.472Z,10.40
2022-07-29T16:04:13.716Z,10.00
2022-07-29T16:09:14.377Z,10.60
2022-07-29T16:11:46.420Z,11.50
2022-07-29T16:14:17.566Z,10.60
2022-07-29T16:16:48.497Z,10.70
2022-07-29T16:19:19.093Z,10.90
2022-07-29T16:21:49.640Z,10.40
2022-07-29T16:24:20.162Z,11.70
2022-07-29T16:26:53.526Z,10.50
2022-07-29T16:29:24.043Z,10.90
2022-07-29T16:31:54.704Z,9.90
2022-07-29T16:34:25.328Z,10.30
2022-07-29T16:36:55.990Z,10.20
2022-07-29T16:41:59.879Z,11.30
2022-07-29T16:44:31.609Z,12.70
2022-07-29T16:49:33.338Z,12.30
2022-07-29T16:52:03.786Z,12.90
2022-07-29T16:54:34.253Z,14.10
2022-07-29T16:57:04.871Z,14.60
2022-07-29T16:59:35.470Z,15.40
2022-07-29T17:02:14.285Z,14.80
2022-07-29T17:04:47.306Z,16.30
2022-07-29T17:07:17.761Z,14.70
2022-07-29T17:09:51.538Z,15.00
2022-07-29T17:12:24.555Z,14.60
2022-07-29T17:14:55.112Z,14.50
2022-07-29T17:17:38.662Z,15.80
2022-07-29T17:20:12.096Z,17.40
2022-07-29T17:22:48.454Z,15.60
2022-07-29T17:25:21.051Z,15.90
2022-07-29T17:27:51.893Z,15.00
2022-07-29T17:30:22.616Z,16.40
2022-07-29T17:32:53.874Z,15.80
2022-07-29T17:35:42.263Z,16.40
2022-07-29T17:38:12.732Z,16.30
2022-07-29T17:40:43.475Z,16.20
2022-07-29T17:43:13.964Z,16.40
2022-07-29T17:45:49.407Z,18.00
2022-07-29T17:48:22.710Z,17.30
2022-07-29T17:50:55.431Z,17.10
2022-07-29T17:53:25.919Z,16.90
2022-07-29T17:55:58.205Z,17.80
2022-07-29T17:58:29.014Z,18.60
2022-07-29T18:00:59.679Z,19.50
2022-07-29T18:03:30.319Z,17.80
2022-07-29T18:06:01.444Z,16.50
2022-07-29T18:11:01.148Z,17.30
2022-07-29T18:13:31.788Z,16.30
2022-07-29T18:16:02.392Z,19.00
2022-07-29T18:18:32.865Z,16.30
2022-07-29T18:21:03.389Z,16.00
2022-07-29T18:23:34.175Z,18.80
2022-07-29T18:26:04.810Z,17.50
2022-07-29T18:28:35.488Z,17.90
2022-07-29T18:31:06.251Z,17.80
2022-07-29T18:33:41.816Z,16.40
2022-07-29T18:36:12.358Z,17.30
2022-07-29T18:38:43.455Z,17.70
2022-07-29T18:43:43.089Z,18.80
2022-07-29T18:46:13.747Z,18.70
2022-07-29T18:48:44.837Z,17.70
2022-07-29T18:51:15.434Z,16.80
2022-07-29T18:53:46.905Z,16.90
2022-07-29T18:56:17.428Z,16.40
2022-07-29T18:58:47.769Z,16.00
2022-07-29T19:01:18.363Z,16.10
2022-07-29T19:03:50.979Z,17.60
2022-07-29T19:06:25.362Z,17.80
2022-07-29T19:08:56.970Z,17.00
2022-07-29T19:11:28.310Z,16.10
2022-07-29T19:13:58.919Z,16.80
2022-07-29T19:16:29.711Z,16.30
2022-07-29T19:19:01.496Z,15.40
2022-07-29T19:21:32.521Z,15.60
2022-07-29T19:24:07.707Z,14.70
2022-07-29T19:26:46.591Z,13.90
2022-07-29T19:29:17.643Z,14.40
2022-07-29T19:31:48.735Z,13.10
2022-07-29T19:36:50.983Z,12.80
2022-07-29T19:39:31.917Z,12.70
2022-07-29T19:42:08.509Z,11.40
2022-07-29T19:44:39.488Z,12.60
2022-07-29T19:47:10.360Z,11.00
2022-07-29T19:49:50.800Z,11.30
2022-07-29T19:52:21.741Z,11.40
2022-07-29T19:54:52.797Z,9.90
2022-07-29T19:57:24.230Z,9.70
2022-07-29T19:59:56.413Z,10.10
2022-07-29T20:02:27.408Z,9.90
2022-07-29T20:04:58.175Z,9.10
2022-07-29T20:09:58.597Z,8.80
2022-07-29T20:12:29.234Z,10.30
2022-07-29T20:15:03.383Z,8.50
2022-07-29T20:17:39.702Z,8.30
2022-07-29T20:20:12.679Z,9.20
2022-07-29T20:22:44.538Z,9.10
2022-07-29T20:25:15.481Z,8.60
2022-07-29T20:27:46.477Z,8.70
2022-07-29T20:30:17.745Z,9.20
2022-07-29T20:32:49.056Z,9.20
2022-07-29T20:37:52.519Z,8.90
2022-07-29T20:40:30.905Z,8.60
2022-07-29T20:43:01.739Z,9.50
2022-07-29T20:45:32.542Z,9.40
2022-07-29T20:48:03.205Z,8.30
2022-07-29T20:50:33.969Z,8.80
2022-07-29T20:53:04.953Z,8.90
2022-07-29T20:55:35.645Z,9.20
2022-07-29T20:58:06.309Z,8.80
2022-07-29T21:00:37.028Z,9.60
2022-07-29T21:03:07.846Z,9.90
2022-07-29T21:05:39.367Z,9.50
2022-07-29T21:08:13.643Z,9.80
2022-07-29T21:10:44.282Z,9.80
2022-07-29T21:13:14.986Z,9.50
2022-07-29T21:15:49.213Z,9.90
2022-07-29T21:18:30.447Z,10.00
2022-07-29T21:21:05.300Z,10.30
2022-07-29T21:23:35.986Z,9.70
2022-07-29T21:26:12.518Z,9.10
2022-07-29T21:28:43.998Z,9.70
2022-07-29T21:31:16.825Z,10.10
2022-07-29T21:33:48.745Z,10.30
2022-07-29T21:36:47.273Z,9.10
2022-07-29T21:39:10.123Z,10.60
2022-07-29T21:41:40.684Z,10.30
2022-07-29T21:44:11.262Z,11.10
2022-07-29T21:46:41.839Z,10.90
2022-07-29T21:49:12.466Z,10.60
2022-07-29T21:51:43.153Z,11.10
2022-07-29T21:54:13.705Z,10.60
2022-07-29T21:56:44.700Z,11.00
2022-07-29T21:59:22.041Z,10.50
2022-07-29T22:01:52.958Z,11.40
2022-07-29T22:04:23.764Z,11.10
2022-07-29T22:06:54.491Z,10.80
2022-07-29T22:09:25.071Z,10.90
2022-07-29T22:11:56.013Z,11.60
2022-07-29T22:14:26.500Z,11.10
2022-07-29T22:16:58.088Z,12.10
2022-07-29T22:19:29.955Z,11.50
2022-07-29T22:22:01.163Z,11.70
2022-07-29T22:24:31.964Z,12.00
2022-07-29T22:27:02.891Z,11.20
2022-07-29T22:29:33.652Z,11.60
2022-07-29T22:32:04.684Z,11.90
2022-07-29T22:34:37.790Z,12.20
2022-07-29T22:37:10.392Z,11.00
2022-07-29T22:39:41.072Z,12.40
2022-07-29T22:42:12.148Z,11.50
2022-07-29T22:47:12.239Z,11.50
2022-07-29T22:49:43.100Z,11.50
2022-07-29T22:52:14.587Z,12.50
2022-07-29T22:54:45.604Z,12.40
2022-07-29T22:57:16.269Z,11.60
2022-07-29T22:59:46.901Z,12.20
2022-07-29T23:02:17.497Z,12.10
2022-07-29T23:04:48.491Z,12.10
2022-07-29T23:07:19.422Z,11.60
2022-07-29T23:09:50.302Z,11.60
2022-07-29T23:12:21.194Z,12.80
2022-07-29T23:14:51.660Z,12.10
2022-07-29T23:17:22.587Z,12.20
2022-07-29T23:19:53.657Z,11.90
2022-07-29T23:22:25.576Z,12.30
2022-07-29T23:24:56.203Z,12.20
2022-07-29T23:27:27.273Z,12.30
2022-07-29T23:29:57.940Z,12.30
2022-07-29T23:32:28.551Z,11.90
2022-07-29T23:34:59.171Z,11.50
2022-07-29T23:37:30.045Z,11.90
2022-07-29T23:40:01.098Z,11.50
2022-07-29T23:42:31.793Z,11.30
2022-07-29T23:45:02.806Z,11.50
2022-07-29T23:47:33.477Z,12.70
2022-07-29T23:50:04.172Z,12.30
2022-07-29T23:52:35.680Z,13.00
2022-07-29T23:55:37.015Z,13.10
2022-07-29T23:57:58.153Z,12.50
